Time;durP1;ratioP1;P1;durP2;ratioP2;P2;SDS_P1;SDS_P2;PMS_P1;PMS_P2;Temp;Humidity;BMP_temperature;BMP_pressure;BME280_temperature;BME280_humidity;BME280_pressure;Samples;Min_cycle;Max_cycle;Signal;HPM_P1;HPM_P2
2022/07/14 00:01:43;;;;;;;1.75;1.23;;;;;;;;;;4981556;28;20478;-73
2022/07/14 00:04:09;;;;;;;2.63;1.27;;;;;;;;;;4980624;28;20084;-72
2022/07/14 00:06:34;;;;;;;1.55;1.40;;;;;;;;;;4981674;28;20061;-72
2022/07/14 00:09:00;;;;;;;1.88;1.38;;;;;;;;;;4981839;28;20038;-73
2022/07/14 00:11:26;;;;;;;3.45;1.40;;;;;;;;;;4980753;28;20066;-72
2022/07/14 00:13:52;;;;;;;4.57;1.25;;;;;;;;;;4981377;28;20078;-72
2022/07/14 00:16:18;;;;;;;3.65;1.52;;;;;;;;;;4981827;28;20726;-72
2022/07/14 00:18:44;;;;;;;1.40;1.30;;;;;;;;;;4981517;28;20105;-72
2022/07/14 00:21:11;;;;;;;2.88;1.45;;;;;;;;;;4980871;28;20145;-72
2022/07/14 00:23:36;;;;;;;1.58;1.25;;;;;;;;;;4981360;28;20041;-73
2022/07/14 00:26:05;;;;;;;2.70;1.20;;;;;;;;;;4981506;28;20427;-73
2022/07/14 00:28:30;;;;;;;1.98;1.17;;;;;;;;;;4981496;28;20026;-72
2022/07/14 00:30:56;;;;;;;4.32;1.27;;;;;;;;;;4981303;28;20049;-72
2022/07/14 00:33:21;;;;;;;3.50;1.50;;;;;;;;;;4980827;28;20038;-72
2022/07/14 00:35:47;;;;;;;1.38;1.27;;;;;;;;;;4981295;28;20034;-72
2022/07/14 00:38:12;;;;;;;9.88;1.65;;;;;;;;;;4981539;28;20679;-72
2022/07/14 00:40:37;;;;;;;3.30;1.38;;;;;;;;;;4981289;28;20038;-72
2022/07/14 00:43:04;;;;;;;2.83;1.50;;;;;;;;;;4980775;28;20034;-73
2022/07/14 00:45:29;;;;;;;4.90;1.70;;;;;;;;;;4979738;28;20034;-72
2022/07/14 00:47:55;;;;;;;4.35;1.38;;;;;;;;;;4979776;28;20041;-72
2022/07/14 00:50:20;;;;;;;1.58;1.35;;;;;;;;;;4979482;28;20606;-72
2022/07/14 00:52:48;;;;;;;2.50;1.20;;;;;;;;;;4980829;28;20038;-71
2022/07/14 00:55:14;;;;;;;3.63;1.75;;;;;;;;;;4978790;28;20162;-73
2022/07/14 00:57:40;;;;;;;7.63;1.50;;;;;;;;;;4981172;28;20092;-72
2022/07/14 01:00:08;;;;;;;2.80;1.38;;;;;;;;;;4979458;28;20042;-73
2022/07/14 01:02:34;;;;;;;3.42;1.83;;;;;;;;;;4981446;28;20030;-72
2022/07/14 01:04:59;;;;;;;3.75;1.42;;;;;;;;;;4978969;28;20042;-72
2022/07/14 01:07:25;;;;;;;2.55;1.20;;;;;;;;;;4980879;28;20115;-72
2022/07/14 01:09:50;;;;;;;2.20;1.50;;;;;;;;;;4980987;28;20034;-72
2022/07/14 01:12:16;;;;;;;1.25;1.15;;;;;;;;;;4963625;28;20042;-73
2022/07/14 01:14:42;;;;;;;3.88;1.30;;;;;;;;;;4981213;28;20045;-73
2022/07/14 01:17:09;;;;;;;1.30;1.20;;;;;;;;;;4979141;28;20400;-71
2022/07/14 01:19:35;;;;;;;1.58;1.02;;;;;;;;;;4979570;28;20046;-73
2022/07/14 01:22:01;;;;;;;3.42;1.40;;;;;;;;;;4980944;28;20403;-73
2022/07/14 01:24:29;;;;;;;1.63;1.20;;;;;;;;;;4980011;28;20049;-72
2022/07/14 01:26:54;;;;;;;2.67;1.00;;;;;;;;;;4978633;28;20466;-72
2022/07/14 01:29:20;;;;;;;2.90;1.10;;;;;;;;;;4979701;28;20046;-73
2022/07/14 01:31:46;;;;;;;3.78;1.35;;;;;;;;;;4980969;28;20096;-72
2022/07/14 01:34:12;;;;;;;2.60;1.02;;;;;;;;;;4979525;28;20038;-72
2022/07/14 01:36:38;;;;;;;3.38;1.45;;;;;;;;;;4975732;28;20038;-72
2022/07/14 01:39:04;;;;;;;1.38;1.27;;;;;;;;;;4981664;28;20038;-72
2022/07/14 01:41:30;;;;;;;2.03;1.50;;;;;;;;;;4982761;28;20038;-72
2022/07/14 01:43:56;;;;;;;1.38;1.20;;;;;;;;;;4983053;28;20410;-73
2022/07/14 01:46:22;;;;;;;2.35;1.30;;;;;;;;;;4966312;28;20401;-72
2022/07/14 01:48:48;;;;;;;1.30;1.10;;;;;;;;;;4982334;28;20041;-72
2022/07/14 01:51:14;;;;;;;2.00;1.20;;;;;;;;;;4982335;28;20049;-72
2022/07/14 01:53:42;;;;;;;2.28;1.00;;;;;;;;;;4984264;28;20031;-72
2022/07/14 01:56:09;;;;;;;1.17;1.08;;;;;;;;;;4982653;28;20034;-73
2022/07/14 01:58:35;;;;;;;4.43;1.00;;;;;;;;;;4982491;28;20030;-72
2022/07/14 02:03:45;;;;;;;2.17;1.20;;;;;;;;;;4983799;28;20116;-74
2022/07/14 02:06:13;;;;;;;1.67;1.20;;;;;;;;;;4982478;28;20068;-73
2022/07/14 02:08:39;;;;;;;2.13;1.50;;;;;;;;;;4982336;28;20464;-73
2022/07/14 02:13:50;;;;;;;3.33;1.20;;;;;;;;;;4976783;28;20030;-73
2022/07/14 02:16:16;;;;;;;1.27;1.10;;;;;;;;;;4982301;28;20058;-73
2022/07/14 02:18:42;;;;;;;3.05;1.25;;;;;;;;;;4982367;28;20065;-73
2022/07/14 02:21:07;;;;;;;4.53;1.23;;;;;;;;;;4981364;28;20037;-73
2022/07/14 02:23:33;;;;;;;1.17;1.10;;;;;;;;;;4983205;28;20494;-72
2022/07/14 02:25:59;;;;;;;3.90;1.38;;;;;;;;;;4983429;28;20034;-73
2022/07/14 02:28:24;;;;;;;1.15;1.05;;;;;;;;;;4983372;28;20034;-73
2022/07/14 02:30:51;;;;;;;1.63;1.00;;;;;;;;;;4982151;28;20173;-72
2022/07/14 02:33:17;;;;;;;1.10;1.00;;;;;;;;;;4970602;28;20066;-72
2022/07/14 02:35:44;;;;;;;7.10;1.10;;;;;;;;;;4983334;28;20464;-73
2022/07/14 02:38:10;;;;;;;1.50;0.95;;;;;;;;;;4965919;28;20177;-73
2022/07/14 02:40:35;;;;;;;1.42;1.10;;;;;;;;;;4981469;28;20407;-74
2022/07/14 02:43:01;;;;;;;1.60;1.10;;;;;;;;;;4982184;28;20484;-73
2022/07/14 02:45:27;;;;;;;1.70;1.15;;;;;;;;;;4980746;28;20030;-73
2022/07/14 02:47:53;;;;;;;1.52;1.02;;;;;;;;;;4983223;28;20045;-73
2022/07/14 02:50:18;;;;;;;1.48;1.05;;;;;;;;;;4981250;28;20027;-73
2022/07/14 02:52:44;;;;;;;1.23;1.10;;;;;;;;;;4981967;28;20087;-73
2022/07/14 02:55:11;;;;;;;2.03;1.10;;;;;;;;;;4980779;28;20034;-73
2022/07/14 02:57:41;;;;;;;1.70;1.20;;;;;;;;;;4981721;28;20078;-72
2022/07/14 03:00:08;;;;;;;2.15;1.20;;;;;;;;;;4981156;28;21508;-72
2022/07/14 03:02:35;;;;;;;2.17;1.83;;;;;;;;;;4981697;28;20030;-73
2022/07/14 03:05:02;;;;;;;3.50;1.50;;;;;;;;;;4982990;28;20123;-72
2022/07/14 03:07:27;;;;;;;1.10;1.00;;;;;;;;;;4980440;28;20034;-72
2022/07/14 03:09:53;;;;;;;1.27;1.17;;;;;;;;;;4981476;28;20045;-71
2022/07/14 03:12:18;;;;;;;2.55;0.90;;;;;;;;;;4964974;28;20097;-72
2022/07/14 03:14:44;;;;;;;4.00;1.10;;;;;;;;;;4981394;28;20042;-71
2022/07/14 03:17:10;;;;;;;3.78;1.10;;;;;;;;;;4981859;28;20456;-72
2022/07/14 03:19:36;;;;;;;1.48;1.10;;;;;;;;;;4981147;28;20034;-72
2022/07/14 03:22:02;;;;;;;1.92;1.23;;;;;;;;;;4980802;28;20057;-72
2022/07/14 03:24:30;;;;;;;1.67;0.90;;;;;;;;;;4981009;28;20088;-73
2022/07/14 03:26:55;;;;;;;2.03;1.17;;;;;;;;;;4981433;28;20038;-72
2022/07/14 03:29:22;;;;;;;0.95;0.95;;;;;;;;;;4964222;28;20093;-72
2022/07/14 03:31:48;;;;;;;1.65;0.93;;;;;;;;;;4980899;28;20517;-73
2022/07/14 03:34:14;;;;;;;0.82;0.82;;;;;;;;;;4981001;28;20040;-72
2022/07/14 03:36:42;;;;;;;2.72;0.90;;;;;;;;;;4978456;28;20041;-73
2022/07/14 03:39:11;;;;;;;0.73;0.73;;;;;;;;;;4979894;28;20327;-73
2022/07/14 03:41:37;;;;;;;1.10;0.80;;;;;;;;;;4981944;28;20087;-72
2022/07/14 03:44:03;;;;;;;0.90;0.90;;;;;;;;;;4980064;28;20042;-72
2022/07/14 03:46:29;;;;;;;2.50;0.95;;;;;;;;;;4979031;28;20041;-73
2022/07/14 03:49:06;;;;;;;1.42;0.80;;;;;;;;;;4980158;28;20038;-73
2022/07/14 03:51:31;;;;;;;1.05;0.77;;;;;;;;;;4978943;28;20034;-73
2022/07/14 03:53:58;;;;;;;2.60;1.00;;;;;;;;;;4980810;28;20448;-73
2022/07/14 03:56:25;;;;;;;4.35;1.00;;;;;;;;;;4980409;28;20034;-72
2022/07/14 03:58:52;;;;;;;1.55;0.77;;;;;;;;;;4980661;28;20031;-73
2022/07/14 04:01:20;;;;;;;2.28;0.80;;;;;;;;;;4978806;28;20042;-73
2022/07/14 04:03:49;;;;;;;1.52;0.80;;;;;;;;;;4980506;28;20034;-72
2022/07/14 04:06:15;;;;;;;1.75;0.95;;;;;;;;;;4980015;28;20349;-73
2022/07/14 04:08:40;;;;;;;2.72;0.82;;;;;;;;;;4980595;28;20037;-73
2022/07/14 04:11:09;;;;;;;1.13;1.00;;;;;;;;;;4979537;28;20030;-73
2022/07/14 04:13:35;;;;;;;2.40;1.00;;;;;;;;;;4978857;28;20514;-74
2022/07/14 04:16:00;;;;;;;1.27;1.15;;;;;;;;;;4979592;28;20736;-73
2022/07/14 04:18:30;;;;;;;3.58;0.90;;;;;;;;;;4980067;28;20389;-73
2022/07/14 04:20:57;;;;;;;1.25;0.90;;;;;;;;;;4970393;28;20451;-74
2022/07/14 04:23:25;;;;;;;4.68;1.02;;;;;;;;;;4979051;28;20129;-73
2022/07/14 04:25:50;;;;;;;1.25;1.08;;;;;;;;;;4979321;28;20137;-72
2022/07/14 04:28:16;;;;;;;3.80;1.15;;;;;;;;;;4976423;28;20514;-72
2022/07/14 04:30:42;;;;;;;5.40;1.17;;;;;;;;;;4980595;28;20743;-72
2022/07/14 04:33:12;;;;;;;1.10;0.95;;;;;;;;;;4962249;28;20034;-73
2022/07/14 04:35:38;;;;;;;2.72;1.15;;;;;;;;;;4966279;28;20046;-72
2022/07/14 04:38:04;;;;;;;0.98;0.88;;;;;;;;;;4979349;28;20053;-73
2022/07/14 04:40:53;;;;;;;3.15;0.90;;;;;;;;;;4978849;28;20117;-72
2022/07/14 04:43:19;;;;;;;1.73;1.00;;;;;;;;;;4979266;28;20093;-72
2022/07/14 04:45:46;;;;;;;5.70;1.10;;;;;;;;;;4978188;28;21167;-73
2022/07/14 04:48:13;;;;;;;1.67;1.05;;;;;;;;;;4979874;28;20030;-72
2022/07/14 04:53:23;;;;;;;2.20;1.00;;;;;;;;;;4980068;28;20050;-72
2022/07/14 04:55:55;;;;;;;2.45;0.80;;;;;;;;;;4977375;28;20117;-72
2022/07/14 04:58:26;;;;;;;2.38;0.98;;;;;;;;;;4979672;28;20042;-72
2022/07/14 05:00:58;;;;;;;2.70;1.02;;;;;;;;;;4979393;28;20100;-72
2022/07/14 05:03:25;;;;;;;1.02;0.80;;;;;;;;;;4978314;28;20129;-72
2022/07/14 05:05:51;;;;;;;1.25;0.85;;;;;;;;;;4979933;28;20022;-72
2022/07/14 05:08:17;;;;;;;1.25;1.10;;;;;;;;;;4976658;28;20058;-73
2022/07/14 05:10:46;;;;;;;2.28;1.13;;;;;;;;;;4979394;28;20113;-73
2022/07/14 05:13:11;;;;;;;4.03;1.02;;;;;;;;;;4977456;28;20863;-73
2022/07/14 05:15:37;;;;;;;1.10;1.00;;;;;;;;;;4975983;28;20042;-72
2022/07/14 05:18:04;;;;;;;1.42;0.98;;;;;;;;;;4980767;28;20097;-71
2022/07/14 05:20:30;;;;;;;1.30;1.00;;;;;;;;;;4981148;28;20109;-71
2022/07/14 05:22:56;;;;;;;0.70;0.70;;;;;;;;;;4982264;28;20030;-71
2022/07/14 05:25:22;;;;;;;1.05;0.90;;;;;;;;;;4981445;28;20046;-71
2022/07/14 05:27:47;;;;;;;5.00;0.77;;;;;;;;;;4981547;28;20121;-72
2022/07/14 05:30:23;;;;;;;10.48;1.40;;;;;;;;;;4980217;28;20030;-71
2022/07/14 05:32:49;;;;;;;6.43;1.05;;;;;;;;;;4981253;28;20034;-71
2022/07/14 05:35:15;;;;;;;5.28;1.48;;;;;;;;;;4982827;28;20034;-72
2022/07/14 05:37:41;;;;;;;2.03;1.10;;;;;;;;;;4983147;28;20062;-72
2022/07/14 05:40:07;;;;;;;3.35;1.08;;;;;;;;;;4981850;28;20062;-71
2022/07/14 05:42:33;;;;;;;5.68;1.10;;;;;;;;;;4983427;28;20236;-71
2022/07/14 05:44:59;;;;;;;3.80;1.30;;;;;;;;;;4985574;28;20133;-71
2022/07/14 05:47:25;;;;;;;3.38;1.20;;;;;;;;;;4987487;28;20049;-71
2022/07/14 05:49:50;;;;;;;1.30;1.05;;;;;;;;;;4987536;28;20509;-71
2022/07/14 05:52:16;;;;;;;4.30;1.00;;;;;;;;;;4984277;28;20034;-71
2022/07/14 05:54:42;;;;;;;2.67;1.10;;;;;;;;;;4984560;28;20093;-70
2022/07/14 05:57:09;;;;;;;5.25;1.15;;;;;;;;;;4984079;28;20027;-70
2022/07/14 05:59:35;;;;;;;2.45;1.10;;;;;;;;;;4983673;28;20121;-70
2022/07/14 06:02:01;;;;;;;1.00;0.90;;;;;;;;;;4978870;28;20121;-71
2022/07/14 06:04:27;;;;;;;6.57;1.20;;;;;;;;;;4963654;28;20546;-73
2022/07/14 06:06:52;;;;;;;2.15;1.20;;;;;;;;;;4983300;28;20042;-71
2022/07/14 06:09:19;;;;;;;5.03;1.35;;;;;;;;;;4982129;28;20037;-72
2022/07/14 06:11:45;;;;;;;2.17;1.20;;;;;;;;;;4982191;28;20026;-72
2022/07/14 06:14:11;;;;;;;5.75;1.30;;;;;;;;;;4980796;28;20410;-71
2022/07/14 06:16:40;;;;;;;2.53;1.10;;;;;;;;;;4982104;28;20631;-71
2022/07/14 06:19:05;;;;;;;4.43;1.27;;;;;;;;;;4982350;28;20036;-71
2022/07/14 06:21:31;;;;;;;6.15;1.50;;;;;;;;;;4982248;28;20034;-70
2022/07/14 06:23:56;;;;;;;1.35;1.00;;;;;;;;;;4980616;28;20042;-71
2022/07/14 06:26:22;;;;;;;4.00;1.45;;;;;;;;;;4981238;28;20040;-71
2022/07/14 06:28:50;;;;;;;5.97;1.20;;;;;;;;;;4965734;28;20035;-71
2022/07/14 06:31:16;;;;;;;5.68;1.30;;;;;;;;;;4981649;28;20045;-73
2022/07/14 06:33:43;;;;;;;2.50;0.90;;;;;;;;;;4966248;28;20030;-72
2022/07/14 06:36:33;;;;;;;0.70;0.70;;;;;;;;;;4968374;28;20165;-71
2022/07/14 06:38:59;;;;;;;2.13;0.90;;;;;;;;;;4985738;28;20508;-72
2022/07/14 06:41:26;;;;;;;0.63;0.63;;;;;;;;;;4982097;28;20048;-71
2022/07/14 06:43:51;;;;;;;1.00;0.88;;;;;;;;;;4983820;28;20030;-71
2022/07/14 06:46:17;;;;;;;6.22;0.60;;;;;;;;;;4983444;28;20022;-72
2022/07/14 06:48:43;;;;;;;3.97;0.90;;;;;;;;;;4963514;28;20503;-71
2022/07/14 06:51:08;;;;;;;1.67;0.82;;;;;;;;;;4981790;28;20113;-71
2022/07/14 06:53:35;;;;;;;7.88;0.90;;;;;;;;;;4981812;28;20037;-71
2022/07/14 06:56:00;;;;;;;3.90;1.08;;;;;;;;;;4983494;28;20038;-71
2022/07/14 06:58:26;;;;;;;4.38;0.95;;;;;;;;;;4977332;28;20050;-70
2022/07/14 07:00:51;;;;;;;2.97;0.70;;;;;;;;;;4982507;28;20070;-71
2022/07/14 07:03:17;;;;;;;2.63;0.70;;;;;;;;;;4982900;28;20054;-70
2022/07/14 07:08:37;;;;;;;4.25;0.70;;;;;;;;;;4942879;28;20496;-71
2022/07/14 07:11:02;;;;;;;1.95;0.88;;;;;;;;;;4981057;28;20042;-71
2022/07/14 07:13:28;;;;;;;5.63;0.90;;;;;;;;;;4980965;28;20050;-69
2022/07/14 07:15:53;;;;;;;1.98;0.80;;;;;;;;;;4983311;28;20495;-71
2022/07/14 07:18:19;;;;;;;3.83;1.02;;;;;;;;;;4981776;28;20053;-72
2022/07/14 07:20:44;;;;;;;2.47;0.75;;;;;;;;;;4982433;28;20066;-72
2022/07/14 07:23:10;;;;;;;2.15;0.80;;;;;;;;;;4981643;28;20069;-73
2022/07/14 07:25:35;;;;;;;5.85;1.00;;;;;;;;;;4981369;28;20057;-72
2022/07/14 07:28:01;;;;;;;2.90;0.90;;;;;;;;;;4981271;28;20602;-72
2022/07/14 07:30:27;;;;;;;1.33;0.80;;;;;;;;;;4978708;28;20050;-72
2022/07/14 07:32:53;;;;;;;3.70;0.90;;;;;;;;;;4981804;28;20049;-71
2022/07/14 07:35:19;;;;;;;2.78;0.70;;;;;;;;;;4978935;28;20137;-71
2022/07/14 07:37:45;;;;;;;0.90;0.90;;;;;;;;;;4981960;28;20038;-72
2022/07/14 07:40:11;;;;;;;2.65;0.90;;;;;;;;;;4979795;28;20462;-71
2022/07/14 07:42:37;;;;;;;3.22;0.80;;;;;;;;;;4980342;28;20042;-71
2022/07/14 07:45:03;;;;;;;4.93;0.75;;;;;;;;;;4980867;28;20128;-71
2022/07/14 07:47:28;;;;;;;2.35;1.30;;;;;;;;;;4980360;28;20096;-70
2022/07/14 07:49:54;;;;;;;3.30;0.90;;;;;;;;;;4979408;28;20101;-71
2022/07/14 07:52:20;;;;;;;1.40;0.70;;;;;;;;;;4976553;28;20094;-70
2022/07/14 07:54:46;;;;;;;3.25;0.70;;;;;;;;;;4981070;28;20467;-71
2022/07/14 07:57:12;;;;;;;5.10;0.93;;;;;;;;;;4980143;28;20050;-70
2022/07/14 07:59:38;;;;;;;1.20;1.00;;;;;;;;;;4981304;28;20030;-71
2022/07/14 08:02:04;;;;;;;1.88;0.90;;;;;;;;;;4980373;28;20042;-73
2022/07/14 08:04:29;;;;;;;1.92;0.60;;;;;;;;;;4979679;28;20514;-71
2022/07/14 08:06:55;;;;;;;0.70;0.63;;;;;;;;;;4978921;28;20053;-71
2022/07/14 08:09:21;;;;;;;1.20;0.70;;;;;;;;;;4980247;28;20060;-72
2022/07/14 08:11:47;;;;;;;1.08;0.65;;;;;;;;;;4978233;28;20140;-72
2022/07/14 08:16:58;;;;;;;2.05;0.70;;;;;;;;;;4980550;28;20045;-69
2022/07/14 08:19:24;;;;;;;3.72;0.90;;;;;;;;;;4979785;28;20048;-71
2022/07/14 08:21:50;;;;;;;1.27;0.80;;;;;;;;;;4980038;28;20084;-71
2022/07/14 08:24:18;;;;;;;3.28;0.90;;;;;;;;;;4978099;28;20113;-71
2022/07/14 08:26:47;;;;;;;5.88;0.77;;;;;;;;;;4979507;28;20101;-71
2022/07/14 08:29:13;;;;;;;0.95;0.80;;;;;;;;;;4980141;28;20058;-70
2022/07/14 08:31:39;;;;;;;2.28;1.10;;;;;;;;;;4979077;28;20124;-71
2022/07/14 08:34:04;;;;;;;2.65;0.88;;;;;;;;;;4979794;28;20053;-71
2022/07/14 08:36:30;;;;;;;5.95;0.98;;;;;;;;;;4977955;28;20038;-70
2022/07/14 08:38:56;;;;;;;7.15;0.88;;;;;;;;;;4980894;28;20042;-70
2022/07/14 08:41:22;;;;;;;2.22;0.80;;;;;;;;;;4981164;28;20042;-70
2022/07/14 08:43:48;;;;;;;1.98;0.70;;;;;;;;;;4980841;28;20143;-71
2022/07/14 08:46:14;;;;;;;2.05;1.00;;;;;;;;;;4980996;28;20035;-69
2022/07/14 08:48:40;;;;;;;4.55;0.90;;;;;;;;;;4985254;28;20061;-70
2022/07/14 08:51:06;;;;;;;5.40;0.80;;;;;;;;;;4985072;28;20057;-70
2022/07/14 08:53:33;;;;;;;0.90;0.90;;;;;;;;;;4986110;28;20042;-72
2022/07/14 08:55:58;;;;;;;2.67;0.80;;;;;;;;;;4985138;28;20038;-72
2022/07/14 08:58:24;;;;;;;1.48;0.98;;;;;;;;;;4984624;28;20057;-71
2022/07/14 09:00:50;;;;;;;1.17;0.80;;;;;;;;;;4985156;28;20076;-72
2022/07/14 09:03:16;;;;;;;1.65;0.77;;;;;;;;;;4984928;28;20475;-72
2022/07/14 09:05:44;;;;;;;2.20;0.80;;;;;;;;;;4982025;28;20049;-71
2022/07/14 09:08:12;;;;;;;2.58;0.82;;;;;;;;;;4984042;28;20045;-72
2022/07/14 09:10:38;;;;;;;0.70;0.60;;;;;;;;;;4984538;28;20846;-73
2022/07/14 09:13:19;;;;;;;1.65;0.80;;;;;;;;;;4984909;28;20042;-72
2022/07/14 09:15:46;;;;;;;2.70;0.80;;;;;;;;;;4983977;28;20038;-71
2022/07/14 09:18:23;;;;;;;2.55;0.80;;;;;;;;;;4984673;28;20109;-72
2022/07/14 09:20:51;;;;;;;0.95;0.70;;;;;;;;;;4982223;28;20045;-72
2022/07/14 09:23:26;;;;;;;2.88;0.90;;;;;;;;;;4984407;28;20030;-72
2022/07/14 09:26:08;;;;;;;3.95;0.77;;;;;;;;;;4984402;28;20026;-71
2022/07/14 09:28:39;;;;;;;3.40;0.90;;;;;;;;;;4983926;28;20081;-72
2022/07/14 09:31:23;;;;;;;1.42;0.85;;;;;;;;;;4983767;28;20042;-72
2022/07/14 09:33:50;;;;;;;2.17;1.10;;;;;;;;;;4984192;28;20073;-71
2022/07/14 09:36:34;;;;;;;2.28;0.85;;;;;;;;;;4983912;28;20038;-72
2022/07/14 09:39:02;;;;;;;3.45;0.95;;;;;;;;;;4984660;28;20137;-72
2022/07/14 09:41:30;;;;;;;4.63;0.90;;;;;;;;;;4983377;28;20459;-72
2022/07/14 09:44:11;;;;;;;2.28;1.00;;;;;;;;;;4983799;28;20503;-72
2022/07/14 09:46:57;;;;;;;2.67;0.95;;;;;;;;;;4984084;28;20130;-72
2022/07/14 09:49:24;;;;;;;1.65;0.85;;;;;;;;;;4982552;28;20050;-73
2022/07/14 09:51:55;;;;;;;1.88;1.00;;;;;;;;;;4984133;28;20058;-70
2022/07/14 09:54:43;;;;;;;2.17;0.80;;;;;;;;;;4982077;28;20049;-74
2022/07/14 09:57:26;;;;;;;1.42;0.70;;;;;;;;;;4983330;28;20125;-73
2022/07/14 10:00:12;;;;;;;4.80;1.00;;;;;;;;;;4983215;28;20097;-73
2022/07/14 10:02:40;;;;;;;6.95;1.00;;;;;;;;;;4983408;28;20034;-73
2022/07/14 10:05:09;;;;;;;2.40;0.80;;;;;;;;;;4983417;28;20093;-74
2022/07/14 10:07:38;;;;;;;2.35;0.90;;;;;;;;;;4983228;28;20042;-72
2022/07/14 10:10:08;;;;;;;2.45;0.70;;;;;;;;;;4983818;28;20049;-73
2022/07/14 10:12:34;;;;;;;1.25;0.80;;;;;;;;;;4983199;28;20034;-73
2022/07/14 10:15:03;;;;;;;1.83;1.40;;;;;;;;;;4983092;28;20515;-72
2022/07/14 10:17:30;;;;;;;1.58;0.75;;;;;;;;;;4983825;28;20057;-72
2022/07/14 10:19:56;;;;;;;4.35;0.90;;;;;;;;;;4984220;28;20034;-72
2022/07/14 10:22:22;;;;;;;3.30;0.70;;;;;;;;;;4983268;28;20030;-73
2022/07/14 10:24:49;;;;;;;1.30;0.80;;;;;;;;;;4983784;28;20038;-73
2022/07/14 10:27:18;;;;;;;0.60;0.60;;;;;;;;;;4981219;28;20063;-71
2022/07/14 10:29:48;;;;;;;2.83;1.65;;;;;;;;;;4978309;28;20061;-72
2022/07/14 10:32:35;;;;;;;2.22;0.65;;;;;;;;;;4978358;28;20041;-72
2022/07/14 10:35:24;;;;;;;2.15;0.75;;;;;;;;;;4978489;28;20061;-72
2022/07/14 10:38:21;;;;;;;2.37;0.70;;;;;;;;;;4976178;28;20042;-72
2022/07/14 10:40:55;;;;;;;0.75;0.75;;;;;;;;;;4978190;28;20038;-74
2022/07/14 10:43:27;;;;;;;2.00;0.70;;;;;;;;;;4977720;28;20066;-73
2022/07/14 10:45:55;;;;;;;0.85;0.82;;;;;;;;;;4978897;28;20053;-71
2022/07/14 10:48:34;;;;;;;0.85;0.70;;;;;;;;;;4978351;28;20042;-71
2022/07/14 10:51:19;;;;;;;0.93;0.60;;;;;;;;;;4976405;28;20495;-73
2022/07/14 10:54:08;;;;;;;2.75;0.70;;;;;;;;;;4978762;28;20038;-72
2022/07/14 10:56:35;;;;;;;2.70;0.55;;;;;;;;;;4978867;28;20507;-72
2022/07/14 10:59:25;;;;;;;2.70;0.70;;;;;;;;;;4977852;28;20031;-75
2022/07/14 11:02:13;;;;;;;1.45;0.60;;;;;;;;;;4978006;28;20038;-74
2022/07/14 11:04:57;;;;;;;1.17;0.80;;;;;;;;;;4980490;28;20396;-72
2022/07/14 11:07:46;;;;;;;1.23;0.77;;;;;;;;;;4982342;28;20042;-73
2022/07/14 11:10:18;;;;;;;2.47;0.73;;;;;;;;;;4981998;28;20050;-71
2022/07/14 11:13:02;;;;;;;1.40;0.80;;;;;;;;;;4978639;28;20642;-71
2022/07/14 11:15:38;;;;;;;3.17;0.80;;;;;;;;;;4978883;28;20030;-72
2022/07/14 11:18:18;;;;;;;2.38;0.80;;;;;;;;;;4978093;28;20042;-71
2022/07/14 11:20:51;;;;;;;4.53;1.02;;;;;;;;;;4976829;28;20086;-72
2022/07/14 11:23:22;;;;;;;0.70;0.70;;;;;;;;;;4977488;28;20049;-72
2022/07/14 11:25:52;;;;;;;3.17;0.80;;;;;;;;;;4977847;28;20042;-73
2022/07/14 11:28:40;;;;;;;0.70;0.70;;;;;;;;;;4977541;28;20128;-72
2022/07/14 11:31:19;;;;;;;1.77;0.80;;;;;;;;;;4977897;28;20038;-73
2022/07/14 11:36:33;;;;;;;4.88;0.77;;;;;;;;;;4982418;28;20041;-72
2022/07/14 11:39:16;;;;;;;2.38;0.80;;;;;;;;;;4982270;28;20030;-71
2022/07/14 11:41:46;;;;;;;1.45;0.60;;;;;;;;;;4981690;28;20049;-73
2022/07/14 11:44:33;;;;;;;2.30;0.90;;;;;;;;;;4981272;28;20491;-73
2022/07/14 11:47:00;;;;;;;3.78;0.80;;;;;;;;;;4982462;28;20045;-71
2022/07/14 11:49:27;;;;;;;3.70;0.70;;;;;;;;;;4982038;28;20188;-73
2022/07/14 11:51:57;;;;;;;1.08;0.73;;;;;;;;;;4982364;28;20026;-71
2022/07/14 11:54:23;;;;;;;5.03;1.00;;;;;;;;;;4981336;28;20077;-71
2022/07/14 11:56:49;;;;;;;3.03;0.98;;;;;;;;;;4982350;28;20088;-71
2022/07/14 11:59:19;;;;;;;4.15;0.75;;;;;;;;;;4982704;28;20034;-72
2022/07/14 12:01:45;;;;;;;1.10;0.70;;;;;;;;;;4982080;28;20404;-72
2022/07/14 12:04:14;;;;;;;1.00;0.60;;;;;;;;;;4980902;28;20034;-71
2022/07/14 12:06:43;;;;;;;3.17;0.80;;;;;;;;;;4981555;28;20026;-72
2022/07/14 12:09:10;;;;;;;2.38;0.80;;;;;;;;;;4979034;28;20034;-71
2022/07/14 12:11:36;;;;;;;0.93;0.60;;;;;;;;;;4981225;28;20547;-72
2022/07/14 12:14:02;;;;;;;2.63;0.60;;;;;;;;;;4981033;28;20575;-71
2022/07/14 12:16:41;;;;;;;2.92;0.60;;;;;;;;;;4981377;28;20038;-72
2022/07/14 12:19:07;;;;;;;2.33;0.73;;;;;;;;;;4981740;28;20054;-74
2022/07/14 12:21:34;;;;;;;2.22;0.60;;;;;;;;;;4981284;28;20102;-72
2022/07/14 12:24:00;;;;;;;1.17;0.73;;;;;;;;;;4982209;28;20084;-71
2022/07/14 12:26:26;;;;;;;1.67;0.80;;;;;;;;;;4981189;28;20506;-70
2022/07/14 12:28:54;;;;;;;8.45;1.00;;;;;;;;;;4982021;28;20468;-74
2022/07/14 12:31:21;;;;;;;7.35;0.80;;;;;;;;;;4978692;28;20368;-73
2022/07/14 12:33:49;;;;;;;1.75;1.05;;;;;;;;;;4977633;28;20045;-71
2022/07/14 12:36:19;;;;;;;1.98;1.10;;;;;;;;;;4977751;28;20041;-73
2022/07/14 12:38:45;;;;;;;;;;;;;;;;;;4975901;28;20117;-73
2022/07/14 12:41:13;;;;;;;0.90;0.70;;;;;;;;;;4976766;28;20713;-73
2022/07/14 12:43:43;;;;;;;1.23;0.70;;;;;;;;;;4977686;28;20033;-73
2022/07/14 12:46:13;;;;;;;1.17;0.60;;;;;;;;;;4976684;28;20042;-73
2022/07/14 12:48:48;;;;;;;0.60;0.60;;;;;;;;;;4975637;28;20051;-73
2022/07/14 12:51:28;;;;;;;1.58;0.90;;;;;;;;;;4975115;28;20041;-72
2022/07/14 12:54:30;;;;;;;3.80;0.77;;;;;;;;;;4977302;28;20026;-73
2022/07/14 12:56:56;;;;;;;3.45;0.70;;;;;;;;;;4974942;28;20061;-72
2022/07/14 12:59:30;;;;;;;1.95;0.70;;;;;;;;;;4976868;28;20034;-71
2022/07/14 13:02:00;;;;;;;3.55;0.90;;;;;;;;;;4976439;28;20042;-73
2022/07/14 13:04:43;;;;;;;0.85;0.60;;;;;;;;;;4977809;28;20050;-74
2022/07/14 13:07:19;;;;;;;3.80;0.82;;;;;;;;;;4976978;28;20054;-74
2022/07/14 13:10:20;;;;;;;3.28;0.60;;;;;;;;;;4976816;28;20038;-73
2022/07/14 13:12:54;;;;;;;0.93;0.73;;;;;;;;;;4975285;28;20042;-71
2022/07/14 13:15:29;;;;;;;9.40;0.70;;;;;;;;;;4975828;28;20038;-72
2022/07/14 13:18:02;;;;;;;0.80;0.80;;;;;;;;;;4976481;28;20108;-71
2022/07/14 13:20:46;;;;;;;2.42;0.70;;;;;;;;;;4976668;28;20487;-72
2022/07/14 13:23:38;;;;;;;1.50;0.73;;;;;;;;;;4975115;28;20034;-74
2022/07/14 13:26:10;;;;;;;1.48;0.70;;;;;;;;;;4977017;28;20687;-74
2022/07/14 13:28:47;;;;;;;3.92;0.70;;;;;;;;;;4977181;28;20177;-72
2022/07/14 13:31:18;;;;;;;6.45;1.52;;;;;;;;;;4974590;28;20046;-72
2022/07/14 13:33:46;;;;;;;5.03;0.70;;;;;;;;;;4974239;28;20535;-73
2022/07/14 13:36:13;;;;;;;0.60;0.50;;;;;;;;;;4978078;28;20038;-72
2022/07/14 13:38:40;;;;;;;1.98;0.65;;;;;;;;;;4977470;28;20033;-73
2022/07/14 13:41:07;;;;;;;0.60;0.50;;;;;;;;;;4977976;28;20747;-73
2022/07/14 13:43:33;;;;;;;6.05;0.77;;;;;;;;;;4978578;28;20065;-73
2022/07/14 13:45:59;;;;;;;5.60;0.90;;;;;;;;;;4978727;28;20034;-74
2022/07/14 13:48:26;;;;;;;5.70;0.80;;;;;;;;;;4980125;28;20041;-73
2022/07/14 13:53:35;;;;;;;0.90;0.60;;;;;;;;;;4983453;28;20406;-71
2022/07/14 13:56:03;;;;;;;1.38;0.75;;;;;;;;;;4983907;28;20026;-72
2022/07/14 13:58:28;;;;;;;3.15;0.60;;;;;;;;;;4982403;28;20049;-71
2022/07/14 14:00:54;;;;;;;9.20;1.00;;;;;;;;;;4983920;28;20022;-72
2022/07/14 14:03:23;;;;;;;4.25;1.02;;;;;;;;;;4983874;28;20491;-72
2022/07/14 14:05:59;;;;;;;1.27;0.50;;;;;;;;;;4982748;28;20034;-73
2022/07/14 14:08:28;;;;;;;2.22;0.70;;;;;;;;;;4978796;28;20042;-72
2022/07/14 14:10:54;;;;;;;4.60;0.70;;;;;;;;;;4979052;28;20515;-71
2022/07/14 14:13:21;;;;;;;8.15;1.00;;;;;;;;;;4977947;28;20022;-70
2022/07/14 14:15:49;;;;;;;1.40;0.85;;;;;;;;;;4979538;28;20041;-72
2022/07/14 14:18:16;;;;;;;0.82;0.65;;;;;;;;;;4979618;28;20030;-72
2022/07/14 14:20:42;;;;;;;2.33;0.60;;;;;;;;;;4980418;28;20443;-71
2022/07/14 14:23:08;;;;;;;4.28;0.40;;;;;;;;;;4980238;28;20045;-72
2022/07/14 14:25:34;;;;;;;3.85;0.70;;;;;;;;;;4980530;28;20069;-71
2022/07/14 14:28:11;;;;;;;3.10;0.90;;;;;;;;;;4976876;28;20038;-71
2022/07/14 14:30:37;;;;;;;7.18;0.80;;;;;;;;;;4978309;28;20042;-71
2022/07/14 14:33:03;;;;;;;1.70;0.70;;;;;;;;;;4978649;28;20045;-71
2022/07/14 14:35:30;;;;;;;3.92;1.02;;;;;;;;;;4974731;28;20038;-70
2022/07/14 14:37:57;;;;;;;0.95;0.60;;;;;;;;;;4976998;28;20030;-70
2022/07/14 14:40:23;;;;;;;3.70;0.70;;;;;;;;;;4976070;28;20571;-72
2022/07/14 14:42:48;;;;;;;5.85;0.50;;;;;;;;;;4976900;28;20069;-72
2022/07/14 14:45:14;;;;;;;1.45;0.73;;;;;;;;;;4977821;28;20050;-73
2022/07/14 14:47:40;;;;;;;4.40;1.00;;;;;;;;;;4979104;28;20491;-71
2022/07/14 14:50:07;;;;;;;2.55;0.73;;;;;;;;;;4979127;28;20034;-71
2022/07/14 14:52:33;;;;;;;16.50;1.20;;;;;;;;;;4970403;28;20042;-72
2022/07/14 14:54:59;;;;;;;2.50;0.68;;;;;;;;;;4978484;28;20038;-72
2022/07/14 14:57:25;;;;;;;2.40;0.80;;;;;;;;;;4978403;28;20048;-72
2022/07/14 14:59:50;;;;;;;5.80;0.82;;;;;;;;;;4977905;28;20743;-72
2022/07/14 15:02:17;;;;;;;3.35;0.60;;;;;;;;;;4977827;28;20053;-72
2022/07/14 15:04:42;;;;;;;3.70;0.80;;;;;;;;;;4979103;28;20125;-72
2022/07/14 15:07:08;;;;;;;4.15;0.80;;;;;;;;;;4977400;28;20180;-72
2022/07/14 15:09:33;;;;;;;3.33;0.93;;;;;;;;;;4976689;28;20042;-72
2022/07/14 15:11:59;;;;;;;2.38;0.88;;;;;;;;;;4977810;28;20045;-72